createdAt,value
2023-02-18T00:01:38.829Z,82.70
2023-02-18T00:04:05.967Z,82.20
2023-02-18T00:06:36.590Z,81.90
2023-02-18T00:09:06.492Z,82.90
2023-02-18T00:11:37.984Z,83.10
2023-02-18T00:14:13.413Z,83.40
2023-02-18T00:16:42.027Z,84.00
2023-02-18T00:19:16.692Z,83.90
2023-02-18T00:21:45.240Z,84.60
2023-02-18T00:24:16.448Z,85.60
2023-02-18T00:26:45.529Z,86.00
2023-02-18T00:29:12.981Z,86.00
2023-02-18T00:31:41.355Z,86.30
2023-02-18T00:34:11.733Z,86.30
2023-02-18T00:36:39.153Z,86.60
2023-02-18T00:39:11.257Z,87.30
2023-02-18T00:41:39.653Z,87.40
2023-02-18T00:44:09.076Z,88.00
2023-02-18T00:46:37.739Z,87.30
2023-02-18T00:49:06.143Z,88.10
2023-02-18T00:51:34.234Z,88.20
2023-02-18T00:54:01.348Z,88.80
2023-02-18T00:56:28.960Z,88.40
2023-02-18T00:58:55.925Z,87.70
2023-02-18T01:01:23.006Z,88.40
2023-02-18T01:03:50.462Z,87.90
2023-02-18T01:06:17.844Z,87.60
2023-02-18T01:08:44.949Z,87.50
2023-02-18T01:11:13.849Z,88.00
2023-02-18T01:13:42.287Z,88.10
2023-02-18T01:16:11.526Z,87.90
2023-02-18T01:18:40.906Z,88.10
2023-02-18T01:21:10.412Z,87.80
2023-02-18T01:23:40.451Z,88.20
2023-02-18T01:26:09.027Z,87.10
2023-02-18T01:28:36.907Z,87.60
2023-02-18T01:31:13.704Z,87.00
2023-02-18T01:33:42.344Z,87.60
2023-02-18T01:36:12.959Z,87.40
2023-02-18T01:38:40.283Z,86.90
2023-02-18T01:41:07.408Z,87.50
2023-02-18T01:43:36.383Z,87.90
2023-02-18T01:46:22.565Z,87.20
2023-02-18T01:49:01.269Z,88.00
2023-02-18T01:51:48.669Z,87.90
2023-02-18T01:54:30.972Z,87.80
2023-02-18T01:57:11.733Z,88.20
2023-02-18T01:59:48.967Z,88.20
2023-02-18T02:02:26.209Z,88.60
2023-02-18T02:04:54.783Z,88.80
2023-02-18T02:07:26.825Z,88.90
2023-02-18T02:09:59.126Z,88.60
2023-02-18T02:13:24.170Z,88.20
2023-02-18T02:16:16.215Z,88.40
2023-02-18T02:19:16.905Z,88.50
2023-02-18T02:22:52.713Z,88.30
2023-02-18T02:26:25.996Z,88.50
2023-02-18T02:29:33.731Z,88.80
2023-02-18T02:32:42.922Z,89.00
2023-02-18T02:36:07.234Z,88.30
2023-02-18T02:38:44.290Z,88.70
2023-02-18T02:41:48.390Z,88.40
2023-02-18T02:44:49.447Z,88.30
2023-02-18T02:47:51.482Z,88.20
2023-02-18T02:50:25.981Z,88.00
2023-02-18T02:53:06.594Z,87.90
2023-02-18T02:55:34.986Z,87.00
2023-02-18T02:58:01.903Z,87.40
2023-02-18T03:01:21.209Z,87.10
2023-02-18T03:04:34.761Z,87.40
2023-02-18T03:08:01.153Z,87.50
2023-02-18T03:11:07.461Z,87.40
2023-02-18T03:14:13.580Z,87.20
2023-02-18T03:16:53.655Z,87.00
2023-02-18T03:19:34.075Z,86.80
2023-02-18T03:22:03.684Z,86.50
2023-02-18T03:24:54.402Z,86.10
2023-02-18T03:27:34.215Z,85.70
2023-02-18T03:30:19.333Z,85.20
2023-02-18T03:32:56.355Z,85.30
2023-02-18T03:35:25.028Z,84.50
2023-02-18T03:38:22.281Z,84.90
2023-02-18T03:40:50.660Z,85.20
2023-02-18T03:43:17.940Z,84.60
2023-02-18T03:45:45.123Z,84.10
2023-02-18T03:48:12.092Z,83.60
2023-02-18T03:50:39.102Z,83.60
2023-02-18T03:53:06.219Z,83.40
2023-02-18T03:55:33.101Z,83.00
2023-02-18T03:58:00.000Z,83.00
2023-02-18T04:00:27.083Z,83.40
2023-02-18T04:02:53.967Z,83.40
2023-02-18T04:05:20.935Z,83.10
2023-02-18T04:07:48.556Z,83.30
2023-02-18T04:10:15.505Z,83.70
2023-02-18T04:12:42.434Z,83.60
2023-02-18T04:15:09.931Z,83.60
2023-02-18T04:17:36.931Z,83.40
2023-02-18T04:20:04.814Z,83.20
2023-02-18T04:22:32.023Z,84.10
2023-02-18T04:25:00.825Z,84.10
2023-02-18T04:27:27.814Z,84.30
2023-02-18T04:29:54.829Z,84.80
2023-02-18T04:32:21.915Z,84.50
2023-02-18T04:34:48.812Z,83.70
2023-02-18T04:37:15.777Z,84.60
2023-02-18T04:39:42.965Z,84.30
2023-02-18T04:42:10.346Z,84.10
2023-02-18T04:44:38.024Z,84.10
2023-02-18T04:47:07.490Z,83.60
2023-02-18T04:49:35.268Z,83.70
2023-02-18T04:52:03.167Z,84.50
2023-02-18T04:54:30.512Z,84.30
2023-02-18T04:56:57.433Z,83.90
2023-02-18T04:59:24.816Z,83.90
2023-02-18T05:01:52.185Z,84.30
2023-02-18T05:04:19.183Z,84.30
2023-02-18T05:06:46.339Z,84.10
2023-02-18T05:09:14.099Z,83.90
2023-02-18T05:11:42.301Z,83.30
2023-02-18T05:14:09.350Z,83.10
2023-02-18T05:16:36.410Z,84.30
2023-02-18T05:19:03.841Z,84.40
2023-02-18T05:21:31.332Z,83.80
2023-02-18T05:23:58.475Z,83.20
2023-02-18T05:26:25.689Z,82.80
2023-02-18T05:28:52.632Z,82.30
2023-02-18T05:31:19.674Z,81.70
2023-02-18T05:33:46.618Z,81.20
2023-02-18T05:36:13.522Z,81.90
2023-02-18T05:38:40.562Z,81.20
2023-02-18T05:41:07.581Z,81.10
2023-02-18T05:43:54.829Z,81.60
2023-02-18T05:46:22.791Z,81.80
2023-02-18T05:48:49.874Z,80.90
2023-02-18T05:51:16.923Z,80.20
2023-02-18T05:53:43.824Z,80.30
2023-02-18T05:56:10.918Z,79.40
2023-02-18T05:58:37.937Z,79.60
2023-02-18T06:01:05.142Z,79.30
2023-02-18T06:03:32.306Z,78.90
2023-02-18T06:05:59.244Z,79.00
2023-02-18T06:08:26.423Z,78.90
2023-02-18T06:10:53.521Z,78.90
2023-02-18T06:13:20.669Z,78.90
2023-02-18T06:15:51.925Z,78.50
2023-02-18T06:18:19.302Z,78.50
2023-02-18T06:20:49.370Z,78.60
2023-02-18T06:23:16.901Z,78.70
2023-02-18T06:25:44.344Z,77.80
2023-02-18T06:28:11.253Z,78.50
2023-02-18T06:30:38.178Z,78.30
2023-02-18T06:33:05.536Z,78.70
2023-02-18T06:35:32.538Z,78.20
2023-02-18T06:37:59.429Z,78.10
2023-02-18T06:40:27.125Z,78.70
2023-02-18T06:42:54.060Z,78.30
2023-02-18T06:45:21.538Z,79.60
2023-02-18T06:47:49.274Z,80.10
2023-02-18T06:50:16.643Z,79.60
2023-02-18T06:52:43.555Z,80.60
2023-02-18T06:55:11.789Z,80.10
2023-02-18T06:57:38.731Z,80.30
2023-02-18T07:00:06.976Z,80.40
2023-02-18T07:02:34.033Z,80.40
2023-02-18T07:05:01.063Z,80.00
2023-02-18T07:07:27.940Z,80.40
2023-02-18T07:09:55.004Z,79.90
2023-02-18T07:12:22.432Z,79.50
2023-02-18T07:14:49.366Z,79.80
2023-02-18T07:17:16.388Z,80.10
2023-02-18T07:19:43.453Z,79.50
2023-02-18T07:22:10.812Z,79.60
2023-02-18T07:24:37.996Z,79.00
2023-02-18T07:27:05.004Z,79.00
2023-02-18T07:29:31.952Z,79.10
2023-02-18T07:31:59.364Z,78.90
2023-02-18T07:34:26.324Z,80.30
2023-02-18T07:36:53.207Z,79.80
2023-02-18T07:39:20.952Z,80.80
2023-02-18T07:41:49.464Z,82.00
2023-02-18T07:44:16.487Z,82.80
2023-02-18T07:46:43.691Z,84.10
2023-02-18T07:49:11.172Z,84.70
2023-02-18T07:51:40.229Z,85.20
2023-02-18T07:54:07.360Z,85.90
2023-02-18T07:56:34.859Z,86.40
2023-02-18T07:59:01.892Z,88.20
2023-02-18T08:01:28.841Z,89.50
2023-02-18T08:03:55.956Z,90.30
2023-02-18T08:06:33.276Z,92.90
2023-02-18T08:09:00.736Z,91.20
2023-02-18T08:11:27.831Z,91.60
2023-02-18T08:13:57.221Z,93.10
2023-02-18T08:16:24.538Z,92.90
2023-02-18T08:18:53.664Z,92.90
2023-02-18T08:21:24.081Z,92.70
2023-02-18T08:23:51.844Z,93.10
2023-02-18T08:26:20.779Z,93.50
2023-02-18T08:28:48.810Z,95.00
2023-02-18T08:31:30.101Z,96.40
2023-02-18T08:34:00.594Z,97.00
2023-02-18T08:36:30.916Z,99.00
2023-02-18T08:38:58.950Z,99.60
2023-02-18T08:41:25.907Z,99.90
2023-02-18T08:43:52.963Z,99.90
2023-02-18T08:46:31.545Z,99.90
2023-02-18T08:49:04.732Z,99.90
2023-02-18T08:51:31.851Z,99.90
2023-02-18T08:53:59.028Z,99.90
2023-02-18T08:56:26.801Z,99.90
2023-02-18T08:58:53.695Z,99.90
2023-02-18T09:01:21.815Z,99.90
2023-02-18T09:03:48.915Z,99.90
2023-02-18T09:06:16.420Z,99.90
2023-02-18T09:08:44.001Z,99.90
2023-02-18T09:11:14.099Z,99.90
2023-02-18T09:13:41.957Z,99.90
2023-02-18T09:16:18.495Z,99.90
2023-02-18T09:18:48.136Z,99.90
2023-02-18T09:21:20.571Z,99.90
2023-02-18T09:23:47.484Z,99.90
2023-02-18T09:26:18.137Z,99.90
2023-02-18T09:28:45.220Z,99.90
2023-02-18T09:31:17.247Z,99.90
2023-02-18T09:33:50.694Z,99.90
2023-02-18T09:36:20.449Z,99.90
2023-02-18T09:38:48.877Z,99.90
2023-02-18T09:41:57.720Z,99.90
2023-02-18T09:44:54.310Z,99.90
2023-02-18T09:47:36.351Z,99.90
2023-02-18T09:50:33.342Z,99.90
2023-02-18T09:53:04.280Z,99.90
2023-02-18T09:55:41.202Z,99.90
2023-02-18T09:58:21.584Z,99.90
2023-02-18T10:01:03.535Z,99.90
2023-02-18T10:03:31.127Z,99.90
2023-02-18T10:06:32.485Z,99.90
2023-02-18T10:09:14.450Z,99.90
2023-02-18T10:11:46.334Z,99.90
2023-02-18T10:14:16.077Z,99.90
2023-02-18T10:16:47.456Z,99.90
2023-02-18T10:19:38.158Z,99.90
2023-02-18T10:22:13.428Z,99.90
2023-02-18T10:24:53.267Z,99.90
2023-02-18T10:27:36.015Z,99.90
2023-02-18T10:30:15.524Z,99.90
2023-02-18T10:32:47.089Z,99.90
2023-02-18T10:36:08.335Z,99.90
2023-02-18T10:39:05.418Z,99.90
2023-02-18T10:42:05.917Z,99.90
2023-02-18T10:45:30.912Z,99.90
2023-02-18T10:48:21.600Z,99.90
2023-02-18T10:50:49.876Z,99.90
2023-02-18T10:53:37.292Z,99.90
2023-02-18T10:56:08.682Z,99.90
2023-02-18T10:58:51.284Z,99.90
2023-02-18T11:01:25.188Z,99.90
2023-02-18T11:04:12.738Z,99.90
2023-02-18T11:06:52.299Z,99.90
2023-02-18T11:09:57.274Z,99.90
2023-02-18T11:12:56.128Z,99.90
2023-02-18T11:15:28.807Z,99.90
2023-02-18T11:18:31.975Z,99.90
2023-02-18T11:21:06.299Z,99.90
2023-02-18T11:23:53.243Z,99.90
2023-02-18T11:26:44.779Z,99.90
2023-02-18T11:29:33.700Z,99.90
2023-02-18T11:32:01.940Z,99.90
2023-02-18T11:34:33.674Z,99.90
2023-02-18T11:37:24.230Z,99.90
2023-02-18T11:39:56.435Z,99.90
2023-02-18T11:42:28.296Z,99.90
2023-02-18T11:45:00.611Z,99.90
2023-02-18T11:47:38.048Z,99.90
2023-02-18T11:50:11.181Z,99.90
2023-02-18T11:52:49.590Z,99.90
2023-02-18T11:55:27.309Z,99.90
2023-02-18T11:58:05.146Z,99.90
2023-02-18T12:00:47.243Z,99.90
2023-02-18T12:03:49.148Z,99.90
2023-02-18T12:06:44.953Z,99.90
2023-02-18T12:09:33.965Z,99.90
2023-02-18T12:12:30.494Z,99.90
2023-02-18T12:15:00.143Z,99.90
2023-02-18T12:18:12.104Z,99.90
2023-02-18T12:21:22.121Z,99.90
2023-02-18T12:24:14.111Z,99.90
2023-02-18T12:27:08.688Z,99.90
2023-02-18T12:30:11.080Z,99.90
2023-02-18T12:33:00.694Z,99.90
2023-02-18T12:35:45.998Z,99.90
2023-02-18T12:38:45.271Z,99.90
2023-02-18T12:42:14.504Z,99.90
2023-02-18T12:45:35.233Z,99.90
2023-02-18T12:48:57.369Z,99.90
2023-02-18T12:51:49.188Z,99.90
2023-02-18T12:54:52.919Z,99.90
2023-02-18T12:57:44.478Z,99.90
2023-02-18T13:00:37.906Z,99.90
2023-02-18T13:03:48.027Z,99.90
2023-02-18T13:07:09.023Z,99.90
2023-02-18T13:09:58.427Z,99.90
2023-02-18T13:13:15.459Z,99.90
2023-02-18T13:16:08.215Z,99.90
2023-02-18T13:18:46.466Z,99.90
2023-02-18T13:21:16.977Z,99.90
2023-02-18T13:23:59.775Z,99.90
2023-02-18T13:26:35.106Z,99.90
2023-02-18T13:29:28.664Z,99.90
2023-02-18T13:33:09.099Z,99.90
2023-02-18T13:36:25.908Z,99.90
2023-02-18T13:39:06.888Z,99.90
2023-02-18T13:41:42.889Z,99.90
2023-02-18T13:44:22.533Z,99.90
2023-02-18T13:46:55.343Z,99.90
2023-02-18T13:49:37.751Z,99.90
2023-02-18T13:52:05.948Z,99.90
2023-02-18T13:54:45.481Z,99.90
2023-02-18T13:57:26.420Z,99.90
2023-02-18T14:00:05.133Z,99.90
2023-02-18T14:02:36.901Z,99.90
2023-02-18T14:05:24.066Z,99.90
2023-02-18T14:08:29.547Z,99.90
2023-02-18T14:11:11.832Z,99.90
2023-02-18T14:13:54.516Z,99.90
2023-02-18T14:16:22.698Z,99.90
2023-02-18T14:19:01.441Z,99.90
2023-02-18T14:21:44.156Z,99.90
2023-02-18T14:24:13.796Z,99.90
2023-02-18T14:27:06.510Z,99.90
2023-02-18T14:29:34.500Z,99.90
2023-02-18T14:32:12.338Z,99.90
2023-02-18T14:35:23.004Z,99.90
2023-02-18T14:39:02.438Z,99.90
2023-02-18T14:42:45.645Z,99.90
2023-02-18T14:45:55.667Z,99.90
2023-02-18T14:48:48.697Z,99.90
2023-02-18T14:51:23.937Z,99.90
2023-02-18T14:53:53.046Z,99.90
2023-02-18T14:56:23.218Z,99.90
2023-02-18T14:59:02.814Z,99.90
2023-02-18T15:01:35.660Z,99.90
2023-02-18T15:04:04.959Z,99.90
2023-02-18T15:06:38.948Z,99.90
2023-02-18T15:09:22.826Z,99.90
2023-02-18T15:12:11.407Z,99.90
2023-02-18T15:14:43.921Z,99.90
2023-02-18T15:17:23.985Z,99.90
2023-02-18T15:20:05.168Z,99.90
2023-02-18T15:22:35.832Z,99.90
2023-02-18T15:25:04.348Z,99.90
2023-02-18T15:27:47.038Z,99.90
2023-02-18T15:30:31.226Z,99.90
2023-02-18T15:33:01.653Z,99.90
2023-02-18T15:35:33.305Z,99.90
2023-02-18T15:38:01.939Z,99.90
2023-02-18T15:40:38.483Z,99.90
2023-02-18T15:43:07.825Z,99.90
2023-02-18T15:45:42.351Z,99.90
2023-02-18T15:48:49.635Z,99.90
2023-02-18T15:51:28.861Z,99.90
2023-02-18T15:54:05.152Z,99.90
2023-02-18T15:56:43.648Z,99.90
2023-02-18T15:59:53.987Z,99.90
2023-02-18T16:02:28.810Z,99.90
2023-02-18T16:05:05.082Z,99.90
2023-02-18T16:07:52.547Z,99.90
2023-02-18T16:10:36.593Z,99.90
2023-02-18T16:13:08.097Z,99.90
2023-02-18T16:15:48.298Z,99.90
2023-02-18T16:18:43.830Z,99.90
2023-02-18T16:21:19.994Z,99.90
2023-02-18T16:24:00.118Z,99.90
2023-02-18T16:26:45.476Z,99.90
2023-02-18T16:29:41.359Z,99.90
2023-02-18T16:32:08.954Z,99.90
2023-02-18T16:34:36.424Z,99.90
2023-02-18T16:37:25.017Z,99.90
2023-02-18T16:39:55.384Z,99.90
2023-02-18T16:42:22.403Z,99.90
2023-02-18T16:44:52.252Z,99.90
2023-02-18T16:47:20.458Z,99.90
2023-02-18T16:49:51.413Z,99.90
2023-02-18T16:52:19.834Z,99.90
2023-02-18T16:54:48.198Z,99.90
2023-02-18T16:57:15.122Z,99.90
2023-02-18T16:59:42.195Z,99.90
2023-02-18T17:02:22.259Z,99.90
2023-02-18T17:04:49.798Z,99.90
2023-02-18T17:07:19.057Z,99.90
2023-02-18T17:09:49.227Z,99.90
2023-02-18T17:12:16.249Z,99.90
2023-02-18T17:14:46.863Z,99.90
2023-02-18T17:17:22.116Z,99.90
2023-02-18T17:19:49.434Z,99.90
2023-02-18T17:22:16.640Z,99.90
2023-02-18T17:24:43.960Z,99.90
2023-02-18T17:27:11.159Z,99.90
2023-02-18T17:29:38.207Z,99.90
2023-02-18T17:32:09.391Z,99.90
2023-02-18T17:34:38.142Z,99.90
2023-02-18T17:37:05.215Z,99.90
2023-02-18T17:39:32.136Z,99.90
2023-02-18T17:41:59.295Z,99.90
2023-02-18T17:44:30.208Z,99.90
2023-02-18T17:47:05.980Z,99.90
2023-02-18T17:49:32.987Z,99.90
2023-02-18T17:52:04.628Z,99.90
2023-02-18T17:54:31.683Z,99.90
2023-02-18T17:57:02.273Z,99.90
2023-02-18T17:59:32.582Z,99.90
2023-02-18T18:02:02.619Z,99.90
2023-02-18T18:04:35.803Z,99.90
2023-02-18T18:07:03.032Z,99.90
2023-02-18T18:09:33.453Z,99.90
2023-02-18T18:12:00.647Z,99.90
2023-02-18T18:14:27.676Z,99.90
2023-02-18T18:16:54.660Z,99.90
2023-02-18T18:19:24.738Z,99.90
2023-02-18T18:21:51.889Z,99.90
2023-02-18T18:24:18.780Z,99.90
2023-02-18T18:26:45.925Z,99.90
2023-02-18T18:29:15.806Z,99.90
2023-02-18T18:31:43.167Z,99.90
2023-02-18T18:34:10.624Z,99.90
2023-02-18T18:36:41.544Z,99.90
2023-02-18T18:39:09.353Z,99.90
2023-02-18T18:41:36.471Z,99.90
2023-02-18T18:44:12.482Z,99.90
2023-02-18T18:46:39.386Z,99.90
2023-02-18T18:49:06.305Z,99.90
2023-02-18T18:51:36.113Z,99.90
2023-02-18T18:54:02.989Z,99.90
2023-02-18T18:56:29.875Z,99.90
2023-02-18T18:58:57.604Z,99.90
2023-02-18T19:01:27.473Z,99.90
2023-02-18T19:03:57.053Z,99.90
2023-02-18T19:06:24.282Z,99.90
2023-02-18T19:08:51.384Z,99.90
2023-02-18T19:11:18.474Z,99.90
2023-02-18T19:13:47.828Z,99.90
2023-02-18T19:16:35.992Z,99.90
2023-02-18T19:19:06.163Z,99.90
2023-02-18T19:21:33.496Z,99.90
2023-02-18T19:24:02.640Z,99.90
2023-02-18T19:26:32.607Z,99.90
2023-02-18T19:28:59.566Z,99.90
2023-02-18T19:31:26.850Z,99.90
2023-02-18T19:33:54.176Z,99.90
2023-02-18T19:36:21.332Z,99.90
2023-02-18T19:38:48.391Z,99.90
2023-02-18T19:41:16.969Z,99.90
2023-02-18T19:43:46.757Z,99.90
2023-02-18T19:46:18.215Z,99.90
2023-02-18T19:48:52.408Z,99.90
2023-02-18T19:51:21.263Z,99.90
2023-02-18T19:53:48.373Z,99.90
2023-02-18T19:56:15.916Z,99.90
2023-02-18T19:58:43.122Z,99.90
2023-02-18T20:01:16.473Z,99.90
2023-02-18T20:03:45.748Z,99.90
2023-02-18T20:06:22.270Z,99.90
2023-02-18T20:08:49.238Z,99.90
2023-02-18T20:11:19.279Z,99.90
2023-02-18T20:13:48.656Z,99.90
2023-02-18T20:16:15.727Z,99.90
2023-02-18T20:18:45.202Z,99.90
2023-02-18T20:21:12.588Z,99.90
2023-02-18T20:23:39.746Z,99.90
2023-02-18T20:26:15.192Z,99.90
2023-02-18T20:28:42.201Z,99.90
2023-02-18T20:31:13.651Z,99.90
2023-02-18T20:33:42.633Z,99.90
2023-02-18T20:36:12.817Z,99.90
2023-02-18T20:38:39.850Z,99.90
2023-02-18T20:41:14.681Z,99.90
2023-02-18T20:43:42.426Z,99.90
2023-02-18T20:46:15.414Z,99.90
2023-02-18T20:48:47.103Z,99.90
2023-02-18T20:51:21.970Z,99.90
2023-02-18T20:53:50.316Z,99.90
2023-02-18T20:56:21.280Z,99.90
2023-02-18T20:58:48.676Z,99.90
2023-02-18T21:01:18.997Z,99.90
2023-02-18T21:03:48.706Z,99.90
2023-02-18T21:06:21.909Z,99.90
2023-02-18T21:08:54.394Z,99.90
2023-02-18T21:11:27.757Z,99.90
2023-02-18T21:13:57.191Z,99.90
2023-02-18T21:16:28.014Z,99.90
2023-02-18T21:18:55.381Z,99.90
2023-02-18T21:21:23.892Z,99.90
2023-02-18T21:23:51.920Z,99.90
2023-02-18T21:26:26.341Z,99.90
2023-02-18T21:28:59.008Z,99.90
2023-02-18T21:31:43.062Z,99.90
2023-02-18T21:34:15.411Z,99.90
2023-02-18T21:36:44.512Z,99.90
2023-02-18T21:39:11.859Z,99.90
2023-02-18T21:41:41.096Z,99.90
2023-02-18T21:44:10.142Z,99.90
2023-02-18T21:46:39.870Z,99.90
2023-02-18T21:49:13.432Z,99.90
2023-02-18T21:51:59.294Z,99.90
2023-02-18T21:54:37.086Z,99.90
2023-02-18T21:57:09.245Z,99.90
2023-02-18T21:59:38.213Z,99.90
2023-02-18T22:02:17.420Z,99.90
2023-02-18T22:04:45.636Z,99.90
2023-02-18T22:07:17.014Z,99.90
2023-02-18T22:09:45.249Z,99.90
2023-02-18T22:12:13.702Z,99.90
2023-02-18T22:14:42.723Z,99.90
2023-02-18T22:17:10.505Z,99.90
2023-02-18T22:19:39.896Z,99.90
2023-02-18T22:22:06.842Z,99.90
2023-02-18T22:24:37.160Z,99.90
2023-02-18T22:27:04.496Z,99.90
2023-02-18T22:29:32.617Z,99.90
2023-02-18T22:32:00.171Z,99.90
2023-02-18T22:34:27.364Z,99.90
2023-02-18T22:36:54.433Z,99.90
2023-02-18T22:39:21.701Z,99.90
2023-02-18T22:41:48.730Z,99.90
2023-02-18T22:44:18.352Z,99.90
2023-02-18T22:46:45.763Z,99.90
2023-02-18T22:49:13.656Z,99.90
2023-02-18T22:51:44.294Z,99.90
2023-02-18T22:54:39.180Z,99.90
2023-02-18T22:57:06.101Z,99.90
2023-02-18T22:59:33.080Z,99.90
2023-02-18T23:02:00.144Z,99.90
2023-02-18T23:04:27.194Z,99.90
2023-02-18T23:06:55.242Z,99.90
2023-02-18T23:09:28.631Z,99.90
2023-02-18T23:11:58.202Z,99.90
2023-02-18T23:14:28.535Z,99.90
2023-02-18T23:17:15.150Z,99.90
2023-02-18T23:19:53.941Z,99.90
2023-02-18T23:22:33.692Z,99.90
2023-02-18T23:25:02.497Z,99.90
2023-02-18T23:27:30.159Z,99.90
2023-02-18T23:29:57.484Z,99.90
2023-02-18T23:32:27.839Z,99.90
2023-02-18T23:34:54.819Z,99.90
2023-02-18T23:37:43.841Z,99.90
2023-02-18T23:40:13.631Z,99.90
2023-02-18T23:42:40.580Z,99.90
2023-02-18T23:45:08.399Z,99.90
2023-02-18T23:47:37.349Z,99.90
2023-02-18T23:50:04.791Z,99.90
2023-02-18T23:52:31.880Z,99.90
2023-02-18T23:54:58.957Z,99.90
2023-02-18T23:57:30.490Z,99.90
2023-02-18T23:59:57.394Z,99.90
